createdAt,value
2022-12-03T02:17:33.793Z,4.21
2022-12-03T02:20:49.995Z,4.53
2022-12-03T02:23:36.196Z,4.80
2022-12-03T02:35:50.626Z,4.71
2022-12-03T02:38:37.823Z,4.74
2022-12-03T02:50:03.999Z,4.60
2022-12-03T02:52:39.804Z,4.32
2022-12-03T02:58:16.978Z,4.56
2022-12-03T03:01:23.354Z,4.40
2022-12-03T03:03:53.738Z,4.55
2022-12-03T03:06:34.307Z,4.19
2022-12-03T03:09:01.757Z,4.22
2022-12-03T03:12:43.761Z,3.78
2022-12-03T03:28:47.295Z,4.28
2022-12-03T03:35:04.111Z,4.07
2022-12-03T05:16:01.749Z,4.76
2022-12-03T05:18:35.472Z,4.72
2022-12-03T05:21:02.308Z,4.77
2022-12-03T05:23:32.345Z,5.04
2022-12-03T05:26:04.994Z,5.06
2022-12-03T05:28:31.952Z,4.88
2022-12-03T05:31:14.452Z,4.63
2022-12-03T05:39:21.107Z,4.47
2022-12-03T05:50:01.506Z,4.45
2022-12-03T05:53:08.547Z,4.61
2022-12-03T06:49:42.832Z,6.71
2022-12-03T06:52:09.748Z,7.77
2022-12-03T17:55:22.307Z,5.44
2022-12-03T17:57:54.987Z,5.42
2022-12-03T18:00:25.135Z,5.28
2022-12-03T18:02:51.813Z,5.42
2022-12-03T18:05:18.707Z,5.48
2022-12-03T18:07:47.300Z,5.30
2022-12-03T18:10:14.139Z,5.49
2022-12-03T18:12:41.048Z,5.76
2022-12-03T18:15:10.894Z,5.30
2022-12-03T18:17:39.101Z,5.32
2022-12-03T18:20:07.037Z,5.39
2022-12-03T18:22:34.430Z,5.44
2022-12-03T18:25:01.438Z,5.42
2022-12-03T18:27:28.431Z,5.61
2022-12-03T18:29:56.300Z,5.57
2022-12-03T18:32:29.305Z,5.75
2022-12-03T18:34:57.451Z,5.67
2022-12-03T18:37:31.834Z,5.68
2022-12-03T18:39:59.465Z,5.57
2022-12-03T18:42:27.457Z,5.45
2022-12-03T18:44:56.448Z,5.62
2022-12-03T18:47:29.980Z,5.30
2022-12-03T18:49:57.942Z,5.39
2022-12-03T18:52:25.365Z,5.64
2022-12-03T18:54:53.160Z,5.42
2022-12-03T18:57:20.128Z,5.52
2022-12-03T18:59:54.928Z,5.59
2022-12-03T19:05:12.383Z,5.60
2022-12-03T19:07:57.700Z,5.79
2022-12-03T19:10:28.358Z,5.46
2022-12-03T19:12:57.503Z,5.45
2022-12-03T19:15:24.614Z,5.63
2022-12-03T19:17:51.721Z,5.49
2022-12-03T19:20:26.928Z,5.62
2022-12-03T19:23:01.406Z,5.86
2022-12-03T19:25:28.461Z,5.98
2022-12-03T19:27:59.870Z,5.79
2022-12-03T19:30:31.747Z,5.90
2022-12-03T19:33:18.046Z,5.68
2022-12-03T19:57:23.470Z,5.59
2022-12-03T19:59:53.927Z,5.71
2022-12-03T20:02:33.614Z,5.56
2022-12-03T20:05:02.180Z,5.23
2022-12-03T20:07:29.735Z,5.18
2022-12-03T20:09:57.209Z,5.42
2022-12-03T20:12:24.401Z,5.20
2022-12-03T20:14:53.877Z,5.42
2022-12-03T20:17:52.122Z,5.49
2022-12-03T20:20:34.785Z,5.30
2022-12-03T20:26:44.979Z,5.56
2022-12-03T20:34:27.265Z,5.42
2022-12-03T20:40:06.330Z,5.36
2022-12-03T20:43:09.284Z,5.23
2022-12-03T20:49:54.526Z,5.08
2022-12-03T20:52:27.249Z,5.31
2022-12-03T20:54:55.282Z,5.29
2022-12-03T20:57:34.565Z,5.42
2022-12-03T21:42:18.940Z,5.36
2022-12-03T21:44:43.994Z,5.32
2022-12-03T21:47:36.678Z,5.16
2022-12-03T22:01:55.606Z,5.11
2022-12-03T22:17:59.862Z,4.91
2022-12-03T22:23:53.595Z,4.86
2022-12-03T22:26:37.530Z,4.66
2022-12-03T22:29:21.275Z,4.87
2022-12-03T22:32:11.697Z,5.15
2022-12-03T22:35:05.185Z,5.21
2022-12-03T22:37:55.830Z,5.03
2022-12-03T22:40:42.478Z,5.11
2022-12-03T22:43:22.897Z,5.29
2022-12-03T22:45:55.451Z,4.77
2022-12-03T22:48:23.256Z,4.73
2022-12-03T22:50:52.102Z,5.11
2022-12-03T22:54:28.916Z,4.81
2022-12-03T23:19:36.810Z,4.84
